createdAt,value
2019-03-23T00:01:39.214Z,7.46
2019-03-23T00:04:06.026Z,7.42
2019-03-23T00:06:33.116Z,7.36
2019-03-23T00:09:00.124Z,7.24
2019-03-23T00:11:29.937Z,7.25
2019-03-23T00:13:57.207Z,7.21
2019-03-23T00:16:24.036Z,6.94
2019-03-23T00:18:51.012Z,6.95
2019-03-23T00:21:17.836Z,7.10
2019-03-23T00:23:44.721Z,7.10
2019-03-23T00:26:13.345Z,6.93
2019-03-23T00:28:40.298Z,6.75
2019-03-23T00:31:07.063Z,6.78
2019-03-23T00:33:37.051Z,6.92
2019-03-23T00:36:04.225Z,7.20
2019-03-23T00:38:31.011Z,7.05
2019-03-23T00:40:57.831Z,6.98
2019-03-23T00:43:25.125Z,6.94
2019-03-23T00:45:51.927Z,6.93
2019-03-23T00:48:18.685Z,6.94
2019-03-23T00:50:45.837Z,6.99
2019-03-23T00:53:12.733Z,7.11
2019-03-23T00:55:41.515Z,7.13
2019-03-23T00:58:08.398Z,7.06
2019-03-23T01:00:35.314Z,6.85
2019-03-23T01:03:02.615Z,6.79
2019-03-23T01:05:30.996Z,6.78
2019-03-23T01:07:57.916Z,6.78
2019-03-23T01:10:24.923Z,6.82
2019-03-23T01:12:52.244Z,6.69
2019-03-23T01:15:19.401Z,6.64
2019-03-23T01:17:46.180Z,6.55
2019-03-23T01:20:13.545Z,6.55
2019-03-23T01:22:40.818Z,6.57
2019-03-23T01:25:09.690Z,6.53
2019-03-23T01:27:36.639Z,6.44
2019-03-23T01:30:10.743Z,6.30
2019-03-23T01:32:38.302Z,6.41
2019-03-23T01:35:06.936Z,6.49
2019-03-23T01:37:34.148Z,6.29
2019-03-23T01:40:01.040Z,6.26
2019-03-23T01:42:28.054Z,6.20
2019-03-23T01:44:55.420Z,6.18
2019-03-23T01:47:22.295Z,6.12
2019-03-23T01:49:51.567Z,6.11
2019-03-23T01:52:19.014Z,6.08
2019-03-23T01:54:45.894Z,6.16
2019-03-23T01:57:12.736Z,6.19
2019-03-23T01:59:39.843Z,6.13
2019-03-23T02:02:07.194Z,6.00
2019-03-23T02:04:35.303Z,5.88
2019-03-23T02:07:13.013Z,6.00
2019-03-23T02:09:31.377Z,6.09
2019-03-23T02:11:58.650Z,5.89
2019-03-23T02:14:25.626Z,5.76
2019-03-23T02:16:52.619Z,5.81
2019-03-23T02:19:19.874Z,5.95
2019-03-23T02:21:46.806Z,6.02
2019-03-23T02:24:13.614Z,5.76
2019-03-23T02:26:41.101Z,5.68
2019-03-23T02:29:08.120Z,5.56
2019-03-23T02:31:35.326Z,5.67
2019-03-23T02:34:02.125Z,5.80
2019-03-23T02:36:29.725Z,5.77
2019-03-23T02:38:56.971Z,5.81
2019-03-23T02:41:24.109Z,5.87
2019-03-23T02:43:51.136Z,5.81
2019-03-23T02:46:17.922Z,5.76
2019-03-23T02:48:45.230Z,5.69
2019-03-23T02:51:12.246Z,5.69
2019-03-23T02:53:39.470Z,5.77
2019-03-23T02:56:06.917Z,5.84
2019-03-23T02:58:33.904Z,5.70
2019-03-23T03:01:01.055Z,5.50
2019-03-23T03:03:28.890Z,5.60
2019-03-23T03:05:55.766Z,5.53
2019-03-23T03:08:26.616Z,5.41
2019-03-23T03:10:53.680Z,5.38
2019-03-23T03:13:20.631Z,5.38
2019-03-23T03:15:48.116Z,5.31
2019-03-23T03:18:15.092Z,5.33
2019-03-23T03:20:41.863Z,5.35
2019-03-23T03:23:09.150Z,5.25
2019-03-23T03:25:36.477Z,5.36
2019-03-23T03:28:04.268Z,5.28
2019-03-23T03:30:31.179Z,5.31
2019-03-23T03:32:58.170Z,5.32
2019-03-23T03:35:25.410Z,5.29
2019-03-23T03:37:56.800Z,5.13
2019-03-23T03:40:21.444Z,5.23
2019-03-23T03:42:48.841Z,5.23
2019-03-23T03:45:28.501Z,5.04
2019-03-23T03:47:55.754Z,5.22
2019-03-23T03:50:23.109Z,5.26
2019-03-23T03:52:52.869Z,5.36
2019-03-23T03:55:19.620Z,5.16
2019-03-23T03:57:46.670Z,5.09
2019-03-23T04:00:14.205Z,4.95
2019-03-23T04:02:41.537Z,5.04
2019-03-23T04:05:08.747Z,5.01
2019-03-23T04:07:35.946Z,4.89
2019-03-23T04:10:07.531Z,4.91
2019-03-23T04:12:34.693Z,4.86
2019-03-23T04:15:01.776Z,4.81
2019-03-23T04:17:28.661Z,4.73
2019-03-23T04:19:55.487Z,4.55
2019-03-23T04:22:23.112Z,4.67
2019-03-23T04:24:49.988Z,4.82
2019-03-23T04:27:17.278Z,4.71
2019-03-23T04:29:44.065Z,4.52
2019-03-23T04:32:13.979Z,4.57
2019-03-23T04:34:41.477Z,4.66
2019-03-23T04:37:10.176Z,4.72
2019-03-23T04:39:37.277Z,4.71
2019-03-23T04:42:04.481Z,4.72
2019-03-23T04:44:31.945Z,4.72
2019-03-23T04:46:58.942Z,4.65
2019-03-23T04:49:25.810Z,4.67
2019-03-23T04:51:53.140Z,4.62
2019-03-23T04:54:19.921Z,4.55
2019-03-23T04:56:46.781Z,4.65
2019-03-23T04:59:15.510Z,4.77
2019-03-23T05:01:42.583Z,4.75
2019-03-23T05:04:10.067Z,4.74
2019-03-23T05:06:36.831Z,4.67
2019-03-23T05:09:07.280Z,4.68
2019-03-23T05:11:36.418Z,4.47
2019-03-23T05:14:03.318Z,4.52
2019-03-23T05:16:30.357Z,4.35
2019-03-23T05:18:57.189Z,4.25
2019-03-23T05:21:27.165Z,4.33
2019-03-23T05:23:54.207Z,4.28
2019-03-23T05:26:22.993Z,4.25
2019-03-23T05:28:49.913Z,4.30
2019-03-23T05:31:16.940Z,4.33
2019-03-23T05:33:43.830Z,4.26
2019-03-23T05:36:11.200Z,4.50
2019-03-23T05:38:44.442Z,4.59
2019-03-23T05:41:07.461Z,4.49
2019-03-23T05:43:35.071Z,4.29
2019-03-23T05:46:04.265Z,4.16
2019-03-23T05:48:31.041Z,4.09
2019-03-23T05:50:57.904Z,4.18
2019-03-23T05:53:24.851Z,4.19
2019-03-23T05:55:51.975Z,4.32
2019-03-23T05:58:19.703Z,4.22
2019-03-23T06:00:46.538Z,4.30
2019-03-23T06:03:14.047Z,4.17
2019-03-23T06:05:41.079Z,4.31
2019-03-23T06:08:08.434Z,4.40
2019-03-23T06:10:35.767Z,4.48
2019-03-23T06:13:02.920Z,4.53
2019-03-23T06:15:30.011Z,4.51
2019-03-23T06:17:56.823Z,4.46
2019-03-23T06:20:25.541Z,4.51
2019-03-23T06:22:52.679Z,4.50
2019-03-23T06:25:19.547Z,4.62
2019-03-23T06:27:46.770Z,4.69
2019-03-23T06:30:17.882Z,4.71
2019-03-23T06:32:44.862Z,4.65
2019-03-23T06:35:11.834Z,4.86
2019-03-23T06:37:38.755Z,5.00
2019-03-23T06:40:09.343Z,4.86
2019-03-23T06:42:36.552Z,4.88
2019-03-23T06:45:11.395Z,5.00
2019-03-23T06:47:41.063Z,5.13
2019-03-23T06:50:09.953Z,5.33
2019-03-23T06:52:37.616Z,5.49
2019-03-23T06:55:06.764Z,5.55
2019-03-23T06:57:33.863Z,5.56
2019-03-23T07:00:01.210Z,5.56
2019-03-23T07:02:28.216Z,5.62
2019-03-23T07:04:55.620Z,5.77
2019-03-23T07:07:23.037Z,5.87
2019-03-23T07:10:05.170Z,5.89
2019-03-23T07:12:32.524Z,5.83
2019-03-23T07:14:59.440Z,5.81
2019-03-23T07:17:28.735Z,5.84
2019-03-23T07:19:56.568Z,5.92
2019-03-23T07:22:23.661Z,6.12
2019-03-23T07:24:50.535Z,6.24
2019-03-23T07:27:17.347Z,6.38
2019-03-23T07:29:44.716Z,6.55
2019-03-23T07:32:11.877Z,6.70
2019-03-23T07:34:39.185Z,6.76
2019-03-23T07:37:08.505Z,6.81
2019-03-23T07:39:35.423Z,6.83
2019-03-23T07:42:02.397Z,6.92
2019-03-23T07:44:29.976Z,7.00
2019-03-23T07:46:56.746Z,7.17
2019-03-23T07:49:23.797Z,7.28
2019-03-23T07:51:50.616Z,7.40
2019-03-23T07:54:17.502Z,7.52
2019-03-23T07:56:45.104Z,7.74
2019-03-23T07:59:11.971Z,7.89
2019-03-23T08:01:39.162Z,8.07
2019-03-23T08:04:06.475Z,8.18
2019-03-23T08:06:33.734Z,8.31
2019-03-23T08:09:00.915Z,8.48
2019-03-23T08:11:27.887Z,8.67
2019-03-23T08:13:57.797Z,8.91
2019-03-23T08:16:25.045Z,9.16
2019-03-23T08:18:51.926Z,9.41
2019-03-23T08:21:18.871Z,9.67
2019-03-23T08:23:46.057Z,9.89
2019-03-23T08:26:13.651Z,10.19
2019-03-23T08:28:40.526Z,10.46
2019-03-23T08:31:07.779Z,10.67
2019-03-23T08:33:35.238Z,10.91
2019-03-23T08:36:02.559Z,11.16
2019-03-23T08:38:30.098Z,11.44
2019-03-23T08:40:57.276Z,11.75
2019-03-23T08:43:24.190Z,12.05
2019-03-23T08:45:51.199Z,12.33
2019-03-23T08:48:18.347Z,12.61
2019-03-23T08:50:47.882Z,12.89
2019-03-23T08:53:14.762Z,13.16
2019-03-23T08:55:41.950Z,13.45
2019-03-23T08:58:08.824Z,13.75
2019-03-23T09:00:36.085Z,14.01
2019-03-23T09:03:03.866Z,14.21
2019-03-23T09:05:30.820Z,14.51
2019-03-23T09:07:58.067Z,14.68
2019-03-23T09:10:24.909Z,14.93
2019-03-23T09:12:51.984Z,15.21
2019-03-23T09:15:19.219Z,15.47
2019-03-23T09:17:46.074Z,15.68
2019-03-23T09:20:13.472Z,15.93
2019-03-23T09:22:40.701Z,16.14
2019-03-23T09:25:08.795Z,16.16
2019-03-23T09:27:35.785Z,16.35
2019-03-23T09:30:10.561Z,16.48
2019-03-23T09:32:37.634Z,16.66
2019-03-23T09:35:05.095Z,16.90
2019-03-23T09:37:31.981Z,17.00
2019-03-23T09:40:10.089Z,17.09
2019-03-23T09:42:28.115Z,17.23
2019-03-23T09:44:55.564Z,17.25
2019-03-23T09:47:22.348Z,17.33
2019-03-23T09:49:49.538Z,17.47
2019-03-23T09:52:16.340Z,17.53
2019-03-23T09:54:43.304Z,17.64
2019-03-23T09:57:10.422Z,17.81
2019-03-23T09:59:37.468Z,17.97
2019-03-23T10:02:04.375Z,18.00
2019-03-23T10:04:31.182Z,18.07
2019-03-23T10:06:58.240Z,18.20
2019-03-23T10:09:25.401Z,18.37
2019-03-23T10:11:52.429Z,18.43
2019-03-23T10:14:19.290Z,18.43
2019-03-23T10:16:46.554Z,18.55
2019-03-23T10:19:13.347Z,18.72
2019-03-23T10:21:40.250Z,18.94
2019-03-23T10:24:07.055Z,19.16
2019-03-23T10:26:33.839Z,19.11
2019-03-23T10:29:01.141Z,19.06
2019-03-23T10:31:28.362Z,19.17
2019-03-23T10:33:56.210Z,19.29
2019-03-23T10:36:23.337Z,19.53
2019-03-23T10:38:50.095Z,19.75
2019-03-23T10:41:17.360Z,19.84
2019-03-23T10:43:46.150Z,20.01
2019-03-23T10:46:13.550Z,20.25
2019-03-23T10:48:40.719Z,20.55
2019-03-23T10:51:07.654Z,20.59
2019-03-23T10:53:34.880Z,20.56
2019-03-23T10:56:01.742Z,20.70
2019-03-23T10:58:28.968Z,20.87
2019-03-23T11:00:56.293Z,21.02
2019-03-23T11:03:23.175Z,20.97
2019-03-23T11:05:50.498Z,20.89
2019-03-23T11:08:17.296Z,20.89
2019-03-23T11:10:44.077Z,21.01
2019-03-23T11:13:11.048Z,21.21
2019-03-23T11:15:38.886Z,21.39
2019-03-23T11:18:05.646Z,21.28
2019-03-23T11:20:33.778Z,21.43
2019-03-23T11:23:02.787Z,21.73
2019-03-23T11:25:30.019Z,22.24
2019-03-23T11:27:57.295Z,22.54
2019-03-23T11:30:24.240Z,22.73
2019-03-23T11:32:51.459Z,22.92
2019-03-23T11:35:20.121Z,23.12
2019-03-23T11:37:47.142Z,23.31
2019-03-23T11:40:14.257Z,23.75
2019-03-23T11:42:49.225Z,23.88
2019-03-23T11:45:10.603Z,24.00
2019-03-23T11:47:37.618Z,24.32
2019-03-23T11:50:06.415Z,24.61
2019-03-23T11:52:33.280Z,24.53
2019-03-23T11:55:00.349Z,24.54
2019-03-23T11:57:27.381Z,24.90
2019-03-23T11:59:54.527Z,25.25
2019-03-23T12:02:21.680Z,25.65
2019-03-23T12:04:49.256Z,25.73
2019-03-23T12:07:16.072Z,26.04
2019-03-23T12:09:43.552Z,26.21
2019-03-23T12:12:11.575Z,26.24
2019-03-23T12:14:38.374Z,26.38
2019-03-23T12:17:06.765Z,26.57
2019-03-23T12:19:34.167Z,26.64
2019-03-23T12:22:01.359Z,26.68
2019-03-23T12:24:28.230Z,26.49
2019-03-23T12:26:55.266Z,26.51
2019-03-23T12:29:22.503Z,26.69
2019-03-23T12:31:49.289Z,26.63
2019-03-23T12:34:16.047Z,26.40
2019-03-23T12:36:44.289Z,26.28
2019-03-23T12:39:11.438Z,26.60
2019-03-23T12:41:38.391Z,26.89
2019-03-23T12:44:05.671Z,26.63
2019-03-23T12:46:32.512Z,26.53
2019-03-23T12:48:59.899Z,26.55
2019-03-23T12:51:26.781Z,26.73
2019-03-23T12:53:54.280Z,26.83
2019-03-23T12:56:21.319Z,27.07
2019-03-23T12:58:48.384Z,26.88
2019-03-23T13:01:15.414Z,26.86
2019-03-23T13:03:45.043Z,26.89
2019-03-23T13:06:14.539Z,27.15
2019-03-23T13:08:41.653Z,26.83
2019-03-23T13:11:23.088Z,26.83
2019-03-23T13:13:42.806Z,26.98
2019-03-23T13:16:10.479Z,26.80
2019-03-23T13:18:38.035Z,26.51
2019-03-23T13:21:05.144Z,26.65
2019-03-23T13:23:32.579Z,26.67
2019-03-23T13:25:59.730Z,26.81
2019-03-23T13:28:26.676Z,26.97
2019-03-23T13:30:53.967Z,26.76
2019-03-23T13:33:20.980Z,26.65
2019-03-23T13:35:48.996Z,26.55
2019-03-23T13:38:15.926Z,26.64
2019-03-23T13:40:44.252Z,26.69
2019-03-23T13:43:11.623Z,26.66
2019-03-23T13:45:42.668Z,26.63
2019-03-23T13:48:11.091Z,26.64
2019-03-23T13:50:37.884Z,26.37
2019-03-23T13:53:05.455Z,26.01
2019-03-23T13:55:33.222Z,26.17
2019-03-23T13:58:09.014Z,26.35
2019-03-23T14:00:36.888Z,26.20
2019-03-23T14:03:06.214Z,25.80
2019-03-23T14:05:33.375Z,25.78
2019-03-23T14:08:00.321Z,25.73
2019-03-23T14:10:28.114Z,25.62
2019-03-23T14:12:56.056Z,25.58
2019-03-23T14:15:23.050Z,25.88
2019-03-23T14:17:50.088Z,25.91
2019-03-23T14:20:17.369Z,25.54
2019-03-23T14:22:44.357Z,25.45
2019-03-23T14:25:11.251Z,25.26
2019-03-23T14:27:39.030Z,25.13
2019-03-23T14:30:07.231Z,25.17
2019-03-23T14:32:34.312Z,25.19
2019-03-23T14:35:01.567Z,25.05
2019-03-23T14:37:28.907Z,24.90
2019-03-23T14:39:56.524Z,24.60
2019-03-23T14:42:23.800Z,24.39
2019-03-23T14:44:51.874Z,24.07
2019-03-23T14:47:20.582Z,23.95
2019-03-23T14:49:47.411Z,23.72
2019-03-23T14:52:14.352Z,23.61
2019-03-23T14:54:41.302Z,23.07
2019-03-23T14:57:08.989Z,22.42
2019-03-23T14:59:49.524Z,21.73
2019-03-23T15:02:16.527Z,21.13
2019-03-23T15:04:43.722Z,20.67
2019-03-23T15:07:10.600Z,20.43
2019-03-23T15:09:37.615Z,20.26
2019-03-23T15:12:14.532Z,20.07
2019-03-23T15:14:34.044Z,20.00
2019-03-23T15:17:00.800Z,19.89
2019-03-23T15:19:28.008Z,19.83
2019-03-23T15:21:55.501Z,19.75
2019-03-23T15:24:22.766Z,19.64
2019-03-23T15:26:49.780Z,19.52
2019-03-23T15:29:17.266Z,19.46
2019-03-23T15:31:44.173Z,19.36
2019-03-23T15:34:11.189Z,19.29
2019-03-23T15:36:38.173Z,19.28
2019-03-23T15:39:07.090Z,19.22
2019-03-23T15:41:34.379Z,19.14
2019-03-23T15:44:04.399Z,19.09
2019-03-23T15:46:31.188Z,19.12
2019-03-23T15:48:58.134Z,19.12
2019-03-23T15:51:25.033Z,19.11
2019-03-23T15:53:52.034Z,19.10
2019-03-23T15:56:21.058Z,18.98
2019-03-23T15:58:48.174Z,18.91
2019-03-23T16:01:15.625Z,18.88
2019-03-23T16:03:42.420Z,18.87
2019-03-23T16:06:09.417Z,18.77
2019-03-23T16:08:36.143Z,18.66
2019-03-23T16:11:03.617Z,18.59
2019-03-23T16:13:30.579Z,18.46
2019-03-23T16:15:57.402Z,18.37
2019-03-23T16:18:25.311Z,18.30
2019-03-23T16:20:52.498Z,18.26
2019-03-23T16:23:19.345Z,18.18
2019-03-23T16:25:46.145Z,18.13
2019-03-23T16:28:13.211Z,17.97
2019-03-23T16:30:40.435Z,17.95
2019-03-23T16:33:07.483Z,17.90
2019-03-23T16:35:34.323Z,17.88
2019-03-23T16:38:01.356Z,17.87
2019-03-23T16:40:28.362Z,17.79
2019-03-23T16:42:56.167Z,17.71
2019-03-23T16:45:23.754Z,17.65
2019-03-23T16:47:51.017Z,17.59
2019-03-23T16:50:17.869Z,17.47
2019-03-23T16:52:45.032Z,17.47
2019-03-23T16:55:13.459Z,17.46
2019-03-23T16:57:42.527Z,17.44
2019-03-23T17:00:12.590Z,17.39
2019-03-23T17:02:39.721Z,17.30
2019-03-23T17:05:07.208Z,17.24
2019-03-23T17:07:34.612Z,17.18
2019-03-23T17:10:01.631Z,17.20
2019-03-23T17:12:30.220Z,17.18
2019-03-23T17:14:57.158Z,17.07
2019-03-23T17:17:24.587Z,16.99
2019-03-23T17:19:52.426Z,16.92
2019-03-23T17:22:19.285Z,16.85
2019-03-23T17:24:46.219Z,16.80
2019-03-23T17:27:13.582Z,16.72
2019-03-23T17:29:41.942Z,16.65
2019-03-23T17:32:09.088Z,16.59
2019-03-23T17:34:36.077Z,16.55
2019-03-23T17:37:03.618Z,16.47
2019-03-23T17:39:30.444Z,16.43
2019-03-23T17:41:58.273Z,16.33
2019-03-23T17:44:25.248Z,16.10
2019-03-23T17:46:52.524Z,15.75
2019-03-23T17:49:22.285Z,15.53
2019-03-23T17:51:49.148Z,15.42
2019-03-23T17:54:15.914Z,15.48
2019-03-23T17:56:45.832Z,15.50
2019-03-23T17:59:12.980Z,15.46
2019-03-23T18:01:40.142Z,15.41
2019-03-23T18:04:07.039Z,15.31
2019-03-23T18:06:34.622Z,15.29
2019-03-23T18:09:04.062Z,15.21
2019-03-23T18:11:31.650Z,15.11
2019-03-23T18:13:59.211Z,15.03
2019-03-23T18:16:26.702Z,15.01
2019-03-23T18:18:53.620Z,14.91
2019-03-23T18:21:21.709Z,14.85
2019-03-23T18:23:49.001Z,14.70
2019-03-23T18:26:16.711Z,14.55
2019-03-23T18:28:43.693Z,14.42
2019-03-23T18:31:10.751Z,14.44
2019-03-23T18:33:38.021Z,14.27
2019-03-23T18:36:05.257Z,14.11
2019-03-23T18:38:32.470Z,13.96
2019-03-23T18:40:59.414Z,13.73
2019-03-23T18:43:27.703Z,13.65
2019-03-23T18:45:54.980Z,13.56
2019-03-23T18:48:22.025Z,13.44
2019-03-23T18:50:49.131Z,13.33
2019-03-23T18:53:17.032Z,13.47
2019-03-23T18:55:43.956Z,13.51
2019-03-23T18:58:10.764Z,13.56
2019-03-23T19:00:42.600Z,13.59
2019-03-23T19:03:10.883Z,13.50
2019-03-23T19:05:38.419Z,13.35
2019-03-23T19:08:05.655Z,13.14
2019-03-23T19:10:32.800Z,12.99
2019-03-23T19:12:59.853Z,12.85
2019-03-23T19:15:27.224Z,12.79
2019-03-23T19:17:54.302Z,12.82
2019-03-23T19:20:21.450Z,12.77
2019-03-23T19:22:48.573Z,12.67
2019-03-23T19:25:18.592Z,12.60
2019-03-23T19:27:46.061Z,12.47
2019-03-23T19:30:14.410Z,12.45
2019-03-23T19:32:41.605Z,12.32
2019-03-23T19:35:09.049Z,12.14
2019-03-23T19:37:35.876Z,12.16
2019-03-23T19:40:05.779Z,12.03
2019-03-23T19:42:33.033Z,11.81
2019-03-23T19:45:00.583Z,11.78
2019-03-23T19:47:27.755Z,11.82
2019-03-23T19:49:54.935Z,11.77
2019-03-23T19:52:22.954Z,11.58
2019-03-23T19:54:49.786Z,11.52
2019-03-23T19:57:17.007Z,11.54
2019-03-23T19:59:48.768Z,11.55
2019-03-23T20:02:19.400Z,11.54
2019-03-23T20:04:49.000Z,11.50
2019-03-23T20:07:19.024Z,11.60
2019-03-23T20:09:46.205Z,11.48
2019-03-23T20:12:13.089Z,11.41
2019-03-23T20:14:41.687Z,11.63
2019-03-23T20:17:08.760Z,11.64
2019-03-23T20:19:35.519Z,11.58
2019-03-23T20:22:02.886Z,11.39
2019-03-23T20:24:30.371Z,11.15
2019-03-23T20:26:57.366Z,10.99
2019-03-23T20:29:24.227Z,10.83
2019-03-23T20:31:50.984Z,10.88
2019-03-23T20:34:18.123Z,11.03
2019-03-23T20:36:45.857Z,11.11
2019-03-23T20:39:12.809Z,10.90
2019-03-23T20:41:40.190Z,10.85
2019-03-23T20:44:09.764Z,10.96
2019-03-23T20:46:36.523Z,10.89
2019-03-23T20:49:06.452Z,10.84
2019-03-23T20:51:33.587Z,10.75
2019-03-23T20:54:00.626Z,10.60
2019-03-23T20:56:27.415Z,10.61
2019-03-23T20:58:56.978Z,10.42
2019-03-23T21:01:23.965Z,10.34
2019-03-23T21:03:51.044Z,10.52
2019-03-23T21:06:17.921Z,10.72
2019-03-23T21:08:44.710Z,10.46
2019-03-23T21:11:12.061Z,10.17
2019-03-23T21:13:46.096Z,10.03
2019-03-23T21:16:13.075Z,10.07
2019-03-23T21:18:39.983Z,10.01
2019-03-23T21:21:07.063Z,9.95
2019-03-23T21:23:34.353Z,9.85
2019-03-23T21:26:01.282Z,9.74
2019-03-23T21:28:28.720Z,9.71
2019-03-23T21:30:55.707Z,9.79
2019-03-23T21:33:23.393Z,9.73
2019-03-23T21:35:50.946Z,9.84
2019-03-23T21:38:17.936Z,9.86
2019-03-23T21:40:44.880Z,9.73
2019-03-23T21:43:11.823Z,9.57
2019-03-23T21:45:39.205Z,9.70
2019-03-23T21:48:06.051Z,9.92
2019-03-23T21:50:33.085Z,9.82
2019-03-23T21:52:59.930Z,9.97
2019-03-23T21:55:27.109Z,9.99
2019-03-23T21:57:54.334Z,9.93
2019-03-23T22:00:28.866Z,9.73
2019-03-23T22:02:55.711Z,9.58
2019-03-23T22:05:23.007Z,9.49
2019-03-23T22:07:51.157Z,9.48
2019-03-23T22:10:18.655Z,9.30
2019-03-23T22:12:49.073Z,9.42
2019-03-23T22:15:18.918Z,9.22
2019-03-23T22:17:46.140Z,9.32
2019-03-23T22:20:13.209Z,9.29
2019-03-23T22:22:41.146Z,9.32
2019-03-23T22:25:08.598Z,9.18
2019-03-23T22:27:37.292Z,9.10
2019-03-23T22:30:08.778Z,9.11
2019-03-23T22:32:35.725Z,8.95
2019-03-23T22:35:07.498Z,9.01
2019-03-23T22:37:34.515Z,9.20
2019-03-23T22:40:07.970Z,9.13
2019-03-23T22:42:34.915Z,9.07
2019-03-23T22:45:05.075Z,8.93
2019-03-23T22:47:32.402Z,8.85
2019-03-23T22:49:59.374Z,8.65
2019-03-23T22:52:26.272Z,8.57
2019-03-23T22:54:53.507Z,8.54
2019-03-23T22:57:20.444Z,8.44
2019-03-23T22:59:47.408Z,8.43
2019-03-23T23:02:14.431Z,8.28
2019-03-23T23:04:41.370Z,8.11
2019-03-23T23:07:08.286Z,8.14
2019-03-23T23:09:35.065Z,8.24
2019-03-23T23:12:02.043Z,8.37
2019-03-23T23:14:31.238Z,8.32
2019-03-23T23:16:58.168Z,8.44
2019-03-23T23:19:25.388Z,8.42
2019-03-23T23:21:52.479Z,8.31
2019-03-23T23:24:20.131Z,8.23
2019-03-23T23:26:47.018Z,8.33
2019-03-23T23:29:15.043Z,8.24
2019-03-23T23:31:42.207Z,8.30
2019-03-23T23:34:08.965Z,8.32
2019-03-23T23:36:36.394Z,8.36
2019-03-23T23:39:06.179Z,8.24
2019-03-23T23:41:33.058Z,8.25
2019-03-23T23:44:02.819Z,8.18
2019-03-23T23:46:30.761Z,8.16
2019-03-23T23:48:57.703Z,8.14
2019-03-23T23:51:25.104Z,8.09
2019-03-23T23:53:52.113Z,8.01
2019-03-23T23:56:19.040Z,8.01
2019-03-23T23:58:46.259Z,8.12
